createdAt,value
2022-12-06T00:01:43.080Z,30.05
2022-12-06T00:04:16.416Z,30.23
2022-12-06T00:06:51.759Z,30.13
2022-12-06T00:09:29.606Z,30.60
2022-12-06T00:11:59.909Z,30.20
2022-12-06T00:14:29.855Z,32.53
2022-12-06T00:16:59.726Z,34.72
2022-12-06T00:19:29.500Z,30.45
2022-12-06T00:21:59.531Z,31.95
2022-12-06T00:24:29.216Z,29.98
2022-12-06T00:26:58.882Z,34.05
2022-12-06T00:29:28.571Z,26.50
2022-12-06T00:31:57.220Z,33.83
2022-12-06T00:34:24.598Z,31.02
2022-12-06T00:36:54.116Z,30.13
2022-12-06T00:39:23.780Z,30.17
2022-12-06T00:41:56.440Z,27.58
2022-12-06T00:44:25.069Z,33.40
2022-12-06T00:46:54.815Z,31.25
2022-12-06T00:49:24.746Z,28.45
2022-12-06T00:51:54.355Z,25.73
2022-12-06T00:54:24.235Z,29.00
2022-12-06T00:56:54.466Z,33.20
2022-12-06T00:59:24.063Z,33.08
2022-12-06T01:01:53.837Z,26.25
2022-12-06T01:04:23.648Z,27.25
2022-12-06T01:06:53.391Z,28.27
2022-12-06T01:09:23.617Z,28.60
2022-12-06T01:11:53.187Z,26.05
2022-12-06T01:14:23.104Z,29.88
2022-12-06T01:16:52.896Z,25.95
2022-12-06T01:19:22.776Z,28.73
2022-12-06T01:21:52.367Z,25.35
2022-12-06T01:24:22.165Z,27.73
2022-12-06T01:26:51.937Z,25.63
2022-12-06T01:29:21.712Z,28.42
2022-12-06T01:31:51.475Z,27.48
2022-12-06T01:34:21.135Z,28.02
2022-12-06T01:36:50.898Z,28.25
2022-12-06T01:39:20.671Z,25.48
2022-12-06T01:41:50.344Z,29.88
2022-12-06T01:44:45.569Z,28.65
2022-12-06T01:47:42.325Z,27.35
2022-12-06T01:50:23.896Z,27.48
2022-12-06T01:53:13.159Z,24.25
2022-12-06T01:58:36.800Z,25.23
2022-12-06T02:01:11.080Z,24.58
2022-12-06T02:03:44.761Z,30.42
2022-12-06T02:06:17.761Z,24.48
2022-12-06T02:08:49.997Z,27.92
2022-12-06T02:11:20.064Z,24.95
2022-12-06T02:13:51.586Z,27.83
2022-12-06T02:16:57.205Z,24.05
2022-12-06T02:19:58.387Z,26.45
2022-12-06T02:23:49.309Z,27.58
2022-12-06T02:26:46.045Z,30.52
2022-12-06T02:30:08.576Z,26.30
2022-12-06T02:33:00.084Z,25.52
2022-12-06T02:36:05.122Z,30.85
2022-12-06T02:38:59.784Z,26.80
2022-12-06T02:41:58.040Z,31.83
2022-12-06T02:44:42.376Z,30.88
2022-12-06T02:47:18.872Z,34.28
2022-12-06T02:49:50.412Z,31.75
2022-12-06T02:52:26.941Z,30.55
2022-12-06T02:55:01.721Z,30.08
2022-12-06T02:57:54.489Z,31.88
2022-12-06T03:00:40.031Z,29.30
2022-12-06T03:03:53.664Z,32.83
2022-12-06T03:07:06.286Z,28.67
2022-12-06T03:10:18.366Z,30.15
2022-12-06T03:13:12.271Z,30.25
2022-12-06T03:16:10.608Z,30.90
2022-12-06T03:19:00.126Z,31.90
2022-12-06T03:21:58.715Z,30.80
2022-12-06T03:24:33.326Z,34.65
2022-12-06T03:27:15.709Z,29.95
2022-12-06T03:29:58.443Z,33.00
2022-12-06T03:32:37.403Z,29.10
2022-12-06T03:35:16.867Z,30.50
2022-12-06T03:37:57.733Z,31.02
2022-12-06T03:40:37.381Z,33.80
2022-12-06T03:43:08.685Z,32.00
2022-12-06T03:46:12.302Z,33.78
2022-12-06T03:49:04.246Z,30.23
2022-12-06T03:51:39.758Z,31.13
2022-12-06T03:54:10.718Z,31.50
2022-12-06T03:56:40.941Z,27.60
2022-12-06T03:59:12.382Z,26.77
2022-12-06T04:01:42.500Z,30.33
2022-12-06T04:04:12.974Z,27.67
2022-12-06T04:06:43.031Z,28.67
2022-12-06T04:09:31.753Z,27.70
2022-12-06T04:12:01.844Z,30.92
2022-12-06T04:14:39.278Z,24.52
2022-12-06T04:17:28.308Z,31.17
2022-12-06T04:19:58.305Z,33.22
2022-12-06T04:22:47.163Z,26.98
2022-12-06T04:25:17.393Z,28.40
2022-12-06T04:28:06.104Z,26.70
2022-12-06T04:30:54.963Z,31.48
2022-12-06T04:33:41.677Z,29.92
2022-12-06T04:36:31.275Z,34.30
2022-12-06T04:39:01.655Z,29.33
2022-12-06T04:41:50.402Z,30.17
2022-12-06T04:44:20.487Z,28.50
2022-12-06T04:46:50.655Z,38.65
2022-12-06T04:49:20.777Z,36.15
2022-12-06T04:51:52.275Z,31.30
2022-12-06T04:54:24.563Z,31.63
2022-12-06T04:56:54.569Z,33.17
2022-12-06T04:59:26.465Z,28.70
2022-12-06T05:01:57.462Z,31.25
2022-12-06T05:04:27.553Z,33.30
2022-12-06T05:06:57.629Z,30.35
2022-12-06T05:09:28.394Z,30.13
2022-12-06T05:11:58.402Z,32.38
2022-12-06T05:14:28.447Z,26.95
2022-12-06T05:16:59.056Z,33.67
2022-12-06T05:19:29.509Z,28.23
2022-12-06T05:21:59.675Z,27.25
2022-12-06T05:24:27.931Z,27.05
2022-12-06T05:26:56.318Z,25.83
2022-12-06T05:29:24.927Z,28.83
2022-12-06T05:31:53.236Z,24.70
2022-12-06T05:34:21.586Z,26.30
2022-12-06T05:36:49.978Z,26.58
2022-12-06T05:39:18.420Z,28.88
2022-12-06T05:41:46.888Z,23.20
2022-12-06T05:44:15.406Z,25.25
2022-12-06T05:46:43.664Z,26.30
2022-12-06T05:49:12.121Z,27.55
2022-12-06T05:51:40.536Z,21.27
2022-12-06T05:54:09.082Z,23.63
2022-12-06T05:56:37.392Z,24.35
2022-12-06T05:59:06.260Z,26.45
2022-12-06T06:01:34.221Z,26.23
2022-12-06T06:04:02.558Z,18.42
2022-12-06T06:06:31.047Z,19.90
2022-12-06T06:08:59.493Z,19.33
2022-12-06T06:11:28.100Z,14.85
2022-12-06T06:13:56.262Z,17.98
2022-12-06T06:16:24.659Z,19.20
2022-12-06T06:18:53.058Z,17.83
2022-12-06T06:21:21.551Z,20.10
2022-12-06T06:23:49.980Z,20.15
2022-12-06T06:26:18.473Z,19.92
2022-12-06T06:28:46.801Z,20.00
2022-12-06T06:31:16.200Z,17.23
2022-12-06T06:33:44.012Z,17.42
2022-12-06T06:36:12.143Z,22.00
2022-12-06T06:38:40.507Z,22.27
2022-12-06T06:41:09.054Z,21.92
2022-12-06T06:43:38.183Z,22.60
2022-12-06T06:46:07.287Z,21.55
2022-12-06T06:48:39.934Z,21.77
2022-12-06T06:51:14.638Z,20.00
2022-12-06T06:53:44.669Z,18.55
2022-12-06T06:56:15.358Z,22.75
2022-12-06T06:58:45.368Z,24.85
2022-12-06T07:01:21.563Z,21.65
2022-12-06T07:03:54.433Z,19.25
2022-12-06T07:06:24.503Z,21.52
2022-12-06T07:08:54.605Z,21.40
2022-12-06T07:11:24.602Z,19.67
2022-12-06T07:13:54.579Z,15.95
2022-12-06T07:16:24.680Z,21.15
2022-12-06T07:18:54.932Z,19.27
2022-12-06T07:21:26.116Z,16.35
2022-12-06T07:23:54.669Z,16.45
2022-12-06T07:26:24.412Z,17.35
2022-12-06T07:28:52.632Z,19.63
2022-12-06T07:31:25.823Z,15.70
2022-12-06T07:34:01.346Z,15.60
2022-12-06T07:36:33.322Z,18.48
2022-12-06T07:39:02.770Z,16.02
2022-12-06T07:41:50.221Z,15.93
2022-12-06T07:44:39.299Z,18.15
2022-12-06T07:47:09.347Z,15.25
2022-12-06T07:49:39.444Z,18.55
2022-12-06T07:52:09.426Z,13.57
2022-12-06T07:54:39.428Z,13.75
2022-12-06T07:57:09.490Z,17.42
2022-12-06T07:59:39.483Z,15.65
2022-12-06T08:02:23.311Z,15.88
2022-12-06T08:04:54.813Z,16.15
2022-12-06T08:07:26.157Z,16.30
2022-12-06T08:09:55.015Z,13.32
2022-12-06T08:12:26.551Z,14.40
2022-12-06T08:14:59.621Z,14.52
2022-12-06T08:17:30.624Z,14.23
2022-12-06T08:19:59.255Z,16.20
2022-12-06T08:22:29.167Z,13.95
2022-12-06T08:24:57.582Z,17.13
2022-12-06T08:27:26.916Z,16.58
2022-12-06T08:29:54.371Z,13.73
2022-12-06T08:32:22.931Z,17.05
2022-12-06T08:34:51.252Z,16.92
2022-12-06T08:37:19.625Z,20.98
2022-12-06T08:39:48.064Z,15.60
2022-12-06T08:42:22.037Z,16.02
2022-12-06T08:44:55.026Z,15.18
2022-12-06T08:47:24.980Z,19.30
2022-12-06T08:49:54.941Z,17.73
2022-12-06T08:52:25.311Z,17.33
2022-12-06T08:54:55.356Z,17.15
2022-12-06T08:57:25.666Z,18.38
2022-12-06T08:59:55.735Z,18.17
2022-12-06T09:02:25.770Z,14.07
2022-12-06T09:04:55.871Z,17.92
2022-12-06T09:07:26.514Z,15.38
2022-12-06T09:09:56.554Z,15.38
2022-12-06T09:12:26.854Z,14.02
2022-12-06T09:14:56.833Z,13.50
2022-12-06T09:17:26.814Z,15.75
2022-12-06T09:19:59.611Z,15.80
2022-12-06T09:22:33.985Z,14.00
2022-12-06T09:25:02.345Z,13.15
2022-12-06T09:27:31.508Z,14.07
2022-12-06T09:29:59.650Z,12.43
2022-12-06T09:32:27.661Z,13.07
2022-12-06T09:34:56.046Z,11.75
2022-12-06T09:37:25.062Z,13.75
2022-12-06T09:40:10.702Z,13.15
2022-12-06T09:44:06.820Z,12.02
2022-12-06T09:47:08.959Z,12.10
2022-12-06T09:50:35.664Z,9.85
2022-12-06T09:54:13.307Z,9.23
2022-12-06T09:56:59.957Z,11.05
2022-12-06T09:59:49.144Z,10.50
2022-12-06T10:02:46.676Z,10.10
2022-12-06T10:05:58.180Z,11.32
2022-12-06T10:08:46.179Z,10.45
2022-12-06T10:12:08.099Z,13.70
2022-12-06T10:15:36.507Z,14.93
2022-12-06T10:18:44.713Z,12.68
2022-12-06T10:21:41.631Z,13.77
2022-12-06T10:24:59.368Z,13.38
2022-12-06T10:27:49.803Z,11.55
2022-12-06T10:30:20.549Z,13.55
2022-12-06T10:33:34.473Z,14.02
2022-12-06T10:36:09.979Z,14.07
2022-12-06T10:38:55.486Z,16.77
2022-12-06T10:41:46.544Z,13.00
2022-12-06T10:44:41.747Z,10.75
2022-12-06T10:47:44.163Z,11.32
2022-12-06T10:50:30.718Z,12.30
2022-12-06T10:53:18.716Z,12.18
2022-12-06T10:56:21.088Z,9.70
2022-12-06T10:59:04.520Z,10.77
2022-12-06T11:01:44.069Z,8.40
2022-12-06T11:04:28.828Z,8.80
2022-12-06T11:07:21.066Z,9.95
2022-12-06T11:09:56.718Z,8.93
2022-12-06T11:12:35.498Z,10.45
2022-12-06T11:15:26.783Z,9.57
2022-12-06T11:18:17.893Z,12.27
2022-12-06T11:21:32.667Z,9.23
2022-12-06T11:24:21.412Z,10.35
2022-12-06T11:27:24.249Z,8.48
2022-12-06T11:29:54.322Z,9.20
2022-12-06T11:32:24.473Z,7.57
2022-12-06T11:35:01.239Z,8.20
2022-12-06T11:37:35.483Z,8.52
2022-12-06T11:40:30.361Z,9.93
2022-12-06T11:43:12.610Z,8.52
2022-12-06T11:45:45.821Z,10.35
2022-12-06T11:48:26.946Z,9.48
2022-12-06T11:50:54.933Z,8.75
2022-12-06T11:54:07.894Z,7.93
2022-12-06T11:56:39.352Z,8.85
2022-12-06T11:59:30.089Z,10.40
2022-12-06T12:02:03.815Z,13.95
2022-12-06T12:04:44.934Z,11.48
2022-12-06T12:07:23.277Z,12.90
2022-12-06T12:10:01.761Z,14.15
2022-12-06T12:13:07.373Z,14.95
2022-12-06T12:15:37.758Z,15.57
2022-12-06T12:18:32.048Z,13.43
2022-12-06T12:21:07.668Z,13.95
2022-12-06T12:23:47.883Z,14.25
2022-12-06T12:26:22.233Z,12.35
2022-12-06T12:29:20.775Z,14.57
2022-12-06T12:31:58.987Z,11.88
2022-12-06T12:34:31.284Z,14.55
2022-12-06T12:37:21.036Z,13.95
2022-12-06T12:39:54.948Z,15.75
2022-12-06T12:42:34.853Z,14.18
2022-12-06T12:45:16.809Z,14.95
2022-12-06T12:48:28.138Z,15.35
2022-12-06T12:51:35.627Z,12.50
2022-12-06T12:54:35.191Z,16.20
2022-12-06T12:57:14.007Z,12.20
2022-12-06T12:59:45.576Z,17.55
2022-12-06T13:02:31.021Z,14.80
2022-12-06T13:05:32.574Z,15.10
2022-12-06T13:08:26.976Z,13.43
2022-12-06T13:11:02.863Z,13.02
2022-12-06T13:13:53.515Z,12.80
2022-12-06T13:16:36.407Z,11.40
2022-12-06T13:19:20.068Z,11.88
2022-12-06T13:21:52.848Z,13.75
2022-12-06T13:24:31.033Z,10.07
2022-12-06T13:27:20.965Z,10.23
2022-12-06T13:30:17.348Z,10.70
2022-12-06T13:33:04.671Z,9.90
2022-12-06T13:35:51.595Z,10.60
2022-12-06T13:38:30.745Z,9.80
2022-12-06T13:41:02.943Z,14.57
2022-12-06T13:43:39.297Z,11.32
2022-12-06T13:46:09.799Z,9.80
2022-12-06T13:49:03.564Z,10.05
2022-12-06T13:51:37.786Z,11.27
2022-12-06T13:54:13.621Z,11.00
2022-12-06T13:56:43.438Z,13.32
2022-12-06T13:59:13.150Z,8.82
2022-12-06T14:01:51.328Z,10.65
2022-12-06T14:09:44.891Z,11.88
2022-12-06T14:12:27.932Z,10.20
2022-12-06T14:15:05.823Z,9.68
2022-12-06T14:20:34.944Z,10.23
2022-12-06T14:23:20.740Z,8.93
2022-12-06T14:25:51.025Z,12.15
2022-12-06T14:28:21.019Z,11.48
2022-12-06T14:30:49.560Z,10.32
2022-12-06T14:33:24.022Z,10.98
2022-12-06T14:35:55.569Z,10.48
2022-12-06T14:38:31.711Z,9.77
2022-12-06T14:41:18.825Z,10.93
2022-12-06T14:43:49.005Z,11.05
2022-12-06T14:46:23.691Z,9.90
2022-12-06T14:49:12.135Z,10.85
2022-12-06T14:51:41.696Z,10.35
2022-12-06T14:54:34.698Z,11.27
2022-12-06T14:57:04.623Z,12.07
2022-12-06T15:00:12.772Z,10.20
2022-12-06T15:02:29.566Z,14.60
2022-12-06T15:05:00.497Z,10.40
2022-12-06T15:07:43.489Z,9.77
2022-12-06T15:10:30.059Z,14.00
2022-12-06T15:13:17.082Z,11.02
2022-12-06T15:15:47.841Z,9.48
2022-12-06T15:18:52.052Z,12.15
2022-12-06T15:21:21.541Z,11.18
2022-12-06T15:23:56.956Z,10.20
2022-12-06T15:26:26.928Z,10.57
2022-12-06T15:28:57.048Z,9.95
2022-12-06T15:31:31.594Z,7.72
2022-12-06T15:34:01.972Z,9.52
2022-12-06T15:36:34.657Z,9.35
2022-12-06T15:39:04.121Z,11.30
2022-12-06T15:41:34.215Z,10.05
2022-12-06T15:44:03.913Z,9.02
2022-12-06T15:46:33.748Z,10.63
2022-12-06T15:49:02.957Z,11.40
2022-12-06T15:51:32.925Z,9.40
2022-12-06T15:54:05.266Z,8.88
2022-12-06T15:56:35.291Z,10.13
2022-12-06T15:59:04.975Z,8.25
2022-12-06T16:01:45.450Z,11.18
2022-12-06T16:04:24.617Z,10.32
2022-12-06T16:06:52.197Z,9.98
2022-12-06T16:09:19.954Z,8.70
2022-12-06T16:11:49.928Z,11.23
2022-12-06T16:14:19.861Z,11.05
2022-12-06T16:16:49.697Z,11.05
2022-12-06T16:19:19.454Z,13.45
2022-12-06T16:21:58.527Z,11.38
2022-12-06T16:24:26.909Z,9.45
2022-12-06T16:26:56.119Z,11.13
2022-12-06T16:29:25.245Z,12.90
2022-12-06T16:31:54.120Z,13.05
2022-12-06T16:34:21.528Z,10.80
2022-12-06T16:37:06.661Z,10.85
2022-12-06T16:39:35.940Z,11.30
2022-12-06T16:42:06.837Z,11.50
2022-12-06T16:44:51.167Z,11.73
2022-12-06T16:49:50.454Z,9.98
2022-12-06T16:52:20.241Z,10.85
2022-12-06T16:54:50.020Z,11.48
2022-12-06T16:57:20.805Z,12.52
2022-12-06T16:59:50.674Z,13.10
2022-12-06T17:02:27.022Z,11.10
2022-12-06T17:05:06.534Z,13.52
2022-12-06T17:07:39.183Z,9.30
2022-12-06T17:10:08.785Z,11.43
2022-12-06T17:12:36.566Z,9.82
2022-12-06T17:15:08.155Z,8.75
2022-12-06T17:17:38.149Z,9.60
2022-12-06T17:20:13.076Z,10.27
2022-12-06T17:22:43.203Z,8.30
2022-12-06T17:25:16.260Z,11.73
2022-12-06T17:27:46.560Z,9.57
2022-12-06T17:30:17.832Z,8.32
2022-12-06T17:32:48.783Z,8.32
2022-12-06T17:35:18.778Z,7.32
2022-12-06T17:37:48.770Z,8.07
2022-12-06T17:40:18.828Z,8.07
2022-12-06T17:43:00.871Z,9.82
2022-12-06T17:45:30.970Z,7.63
2022-12-06T17:48:01.046Z,7.93
2022-12-06T17:50:31.010Z,6.68
2022-12-06T17:53:01.064Z,8.20
2022-12-06T17:55:31.103Z,9.55
2022-12-06T17:58:02.591Z,6.72
2022-12-06T18:00:32.012Z,11.70
2022-12-06T18:03:02.070Z,10.23
2022-12-06T18:05:33.410Z,8.52
2022-12-06T18:08:03.481Z,6.13
2022-12-06T18:10:33.541Z,9.68
2022-12-06T18:13:05.397Z,9.82
2022-12-06T18:15:37.673Z,11.15
2022-12-06T18:18:07.703Z,8.25
2022-12-06T18:20:37.727Z,8.90
2022-12-06T18:23:07.677Z,9.65
2022-12-06T18:25:45.249Z,14.52
2022-12-06T18:28:13.141Z,14.45
2022-12-06T18:30:43.257Z,12.35
2022-12-06T18:33:17.631Z,14.18
2022-12-06T18:35:54.021Z,14.35
2022-12-06T18:38:24.007Z,12.55
2022-12-06T18:41:07.173Z,13.27
2022-12-06T18:43:37.845Z,15.25
2022-12-06T18:46:22.042Z,13.35
2022-12-06T18:48:58.200Z,16.40
2022-12-06T18:51:34.399Z,19.15
2022-12-06T18:54:05.976Z,15.95
2022-12-06T18:56:36.874Z,17.92
2022-12-06T18:59:08.711Z,17.23
2022-12-06T19:01:41.196Z,16.58
2022-12-06T19:04:16.676Z,16.15
2022-12-06T19:06:46.690Z,19.13
2022-12-06T19:09:16.758Z,17.25
2022-12-06T19:11:47.063Z,18.00
2022-12-06T19:14:17.264Z,21.05
2022-12-06T19:16:52.025Z,17.58
2022-12-06T19:19:26.924Z,19.33
2022-12-06T19:22:00.405Z,21.10
2022-12-06T19:24:30.780Z,21.48
2022-12-06T19:27:01.838Z,20.20
2022-12-06T19:29:32.079Z,19.75
2022-12-06T19:32:02.547Z,20.75
2022-12-06T19:34:32.658Z,18.83
2022-12-06T19:37:02.751Z,22.95
2022-12-06T19:39:32.818Z,22.13
2022-12-06T19:42:21.460Z,19.45
2022-12-06T19:44:51.485Z,23.15
2022-12-06T19:47:21.645Z,22.55
2022-12-06T19:49:51.753Z,21.45
2022-12-06T19:52:27.833Z,24.20
2022-12-06T19:55:00.669Z,23.50
2022-12-06T19:57:30.666Z,22.63
2022-12-06T20:00:01.084Z,25.23
2022-12-06T20:02:31.317Z,21.60
2022-12-06T20:05:01.435Z,24.58
2022-12-06T20:07:32.204Z,22.58
2022-12-06T20:10:02.688Z,25.23
2022-12-06T20:12:32.932Z,21.25
2022-12-06T20:15:02.603Z,24.60
2022-12-06T20:17:32.329Z,22.70
2022-12-06T20:20:02.786Z,23.00
2022-12-06T20:22:32.990Z,26.02
2022-12-06T20:25:02.696Z,25.65
2022-12-06T20:27:51.366Z,24.00
2022-12-06T20:30:23.886Z,22.95
2022-12-06T20:32:52.671Z,23.73
2022-12-06T20:35:20.944Z,23.83
2022-12-06T20:37:52.591Z,24.55
2022-12-06T20:40:21.143Z,24.58
2022-12-06T20:42:49.693Z,20.67
2022-12-06T20:45:18.723Z,22.42
2022-12-06T20:47:51.549Z,19.98
2022-12-06T20:50:22.338Z,20.65
2022-12-06T20:52:52.340Z,17.90
2022-12-06T20:55:22.129Z,20.45
2022-12-06T20:57:51.943Z,18.48
2022-12-06T21:00:22.434Z,18.90
2022-12-06T21:02:52.507Z,18.27
2022-12-06T21:05:22.222Z,17.25
2022-12-06T21:07:52.051Z,18.02
2022-12-06T21:10:22.021Z,17.30
2022-12-06T21:12:51.656Z,14.90
2022-12-06T21:15:21.545Z,12.75
2022-12-06T21:17:51.187Z,13.52
2022-12-06T21:20:20.941Z,12.60
2022-12-06T21:22:50.806Z,10.45
2022-12-06T21:25:20.805Z,8.48
2022-12-06T21:27:50.606Z,9.38
2022-12-06T21:30:20.451Z,8.32
2022-12-06T21:32:50.245Z,5.35
2022-12-06T21:35:20.013Z,5.97
2022-12-06T21:37:49.820Z,8.50
2022-12-06T21:40:19.937Z,4.88
2022-12-06T21:42:49.913Z,6.63
2022-12-06T21:45:19.845Z,7.38
2022-12-06T21:47:49.507Z,5.72
2022-12-06T21:50:19.649Z,5.95
2022-12-06T21:52:48.989Z,5.90
2022-12-06T21:55:18.715Z,6.03
2022-12-06T21:57:49.333Z,6.53
2022-12-06T22:00:22.413Z,6.35
2022-12-06T22:02:54.271Z,6.35
2022-12-06T22:05:22.981Z,5.78
2022-12-06T22:07:53.027Z,6.90
2022-12-06T22:10:23.106Z,5.97
2022-12-06T22:12:52.821Z,6.38
2022-12-06T22:15:22.666Z,7.22
2022-12-06T22:17:52.401Z,9.18
2022-12-06T22:20:22.089Z,8.73
2022-12-06T22:22:51.877Z,8.23
2022-12-06T22:25:21.641Z,10.43
2022-12-06T22:27:54.146Z,9.55
2022-12-06T22:30:22.920Z,9.73
2022-12-06T22:32:51.167Z,9.68
2022-12-06T22:35:19.628Z,10.32
2022-12-06T22:37:47.973Z,11.65
2022-12-06T22:40:16.483Z,12.45
2022-12-06T22:42:44.786Z,11.73
2022-12-06T22:45:13.306Z,15.18
2022-12-06T22:47:41.617Z,17.08
2022-12-06T22:50:10.208Z,17.10
2022-12-06T22:52:38.683Z,16.27
2022-12-06T22:55:07.359Z,16.65
2022-12-06T22:57:35.417Z,15.30
2022-12-06T23:00:05.295Z,17.35
2022-12-06T23:02:35.176Z,18.17
2022-12-06T23:05:03.742Z,19.10
2022-12-06T23:07:32.011Z,20.23
2022-12-06T23:10:00.909Z,17.75
2022-12-06T23:12:28.816Z,17.88
2022-12-06T23:14:57.353Z,20.17
2022-12-06T23:17:25.668Z,18.05
2022-12-06T23:19:54.051Z,22.17
2022-12-06T23:22:22.449Z,16.83
2022-12-06T23:24:51.815Z,23.92
2022-12-06T23:27:19.344Z,21.50
2022-12-06T23:29:47.689Z,24.30
2022-12-06T23:32:16.093Z,22.30
2022-12-06T23:34:44.527Z,21.33
2022-12-06T23:37:12.951Z,26.75
2022-12-06T23:39:41.376Z,21.88
2022-12-06T23:42:12.916Z,29.20
2022-12-06T23:44:43.219Z,25.85
2022-12-06T23:47:12.863Z,23.50
2022-12-06T23:49:42.624Z,31.58
2022-12-06T23:52:12.424Z,25.95
2022-12-06T23:54:42.351Z,24.00
2022-12-06T23:57:15.002Z,25.02
2022-12-06T23:59:45.035Z,24.02
